Waskaganish, Canada
Current Conditions -  °F | °C
As of 9:00 AM on Tuesday 21 Oct 2014 (Local Time) from CYMO Reporting Station
Overcast Overcast  
Wind Chill: 36°   Ceiling: 2900
Heat Index: 36°   Visibility: 9mi
Dew Point: 32°   Wind: 3mph
Humidity: 87%   Direction: 340°NNW
Pressure: 30.31"   Gusts: NA
Location:  51.49°N, 78.75°W
Report Text: CYMO 211300Z AUTO 34003KT 9SM OVC029 02/00 A3031 RMK SLP263
Loading
Personal Weather Stations






























Interactive Weather Map
Tropical Storm Tracking
New forecast layout! Learn more

10-Day Weather Forecast

Advertisements
Track Severe Weather on mobile